Time;durP1;ratioP1;P1;durP2;ratioP2;P2;SDS_P1;SDS_P2;PMS_P1;PMS_P2;Temp;Humidity;BMP_temperature;BMP_pressure;BME280_temperature;BME280_humidity;BME280_pressure;Samples;Min_cycle;Max_cycle;Signal;HPM_P1;HPM_P2
2022/11/15 00:00:33;;;;;;;7.13;5.77;;;;;;;;;;5049271;28;20226;-31
2022/11/15 00:03:00;;;;;;;7.73;5.33;;;;;;;;;;5053507;28;20208;-31
2022/11/15 00:05:27;;;;;;;7.60;5.70;;;;;;;;;;5053737;28;20212;-35
2022/11/15 00:07:54;;;;;;;8.23;5.90;;;;;;;;;;5046595;28;20209;-30
2022/11/15 00:10:21;;;;;;;10.20;5.50;;;;;;;;;;5052196;28;20225;-30
2022/11/15 00:12:48;;;;;;;7.50;5.63;;;;;;;;;;5053999;28;20217;-31
2022/11/15 00:15:17;;;;;;;8.40;5.50;;;;;;;;;;5044593;28;20293;-31
2022/11/15 00:17:44;;;;;;;7.07;5.03;;;;;;;;;;5044998;28;20298;-32
2022/11/15 00:20:12;;;;;;;9.73;5.20;;;;;;;;;;5035949;28;20587;-31
2022/11/15 00:22:39;;;;;;;7.30;4.77;;;;;;;;;;5034536;28;20211;-31
2022/11/15 00:25:07;;;;;;;7.70;5.27;;;;;;;;;;5038322;28;20557;-30
2022/11/15 00:27:34;;;;;;;7.77;5.20;;;;;;;;;;5053374;28;20202;-30
2022/11/15 00:30:02;;;;;;;7.53;4.93;;;;;;;;;;5049048;28;20236;-29
2022/11/15 00:32:33;;;;;;;7.07;5.37;;;;;;;;;;5053232;28;20202;-31
2022/11/15 00:35:00;;;;;;;7.13;5.23;;;;;;;;;;5052712;28;20201;-31
2022/11/15 00:37:27;;;;;;;6.70;4.57;;;;;;;;;;5046368;28;20234;-31
2022/11/15 00:39:55;;;;;;;6.90;4.83;;;;;;;;;;5047158;28;20212;-31
2022/11/15 00:42:22;;;;;;;6.03;4.53;;;;;;;;;;5053113;28;20202;-32
2022/11/15 00:44:49;;;;;;;6.47;5.13;;;;;;;;;;5038588;28;20551;-33
2022/11/15 00:47:16;;;;;;;6.00;4.43;;;;;;;;;;5046033;28;20206;-32
2022/11/15 00:49:44;;;;;;;8.17;4.63;;;;;;;;;;5044600;28;20218;-31
2022/11/15 00:52:11;;;;;;;6.77;4.10;;;;;;;;;;5034629;28;20250;-28
2022/11/15 00:54:39;;;;;;;7.27;5.40;;;;;;;;;;5050474;28;20216;-32
2022/11/15 00:57:06;;;;;;;7.03;4.97;;;;;;;;;;5052143;28;20202;-33
2022/11/15 00:59:33;;;;;;;6.57;4.37;;;;;;;;;;5044923;28;20202;-32
2022/11/15 01:02:00;;;;;;;7.67;4.80;;;;;;;;;;5045564;28;20232;-31
2022/11/15 01:04:28;;;;;;;5.97;4.30;;;;;;;;;;5052294;28;20210;-32
2022/11/15 01:06:56;;;;;;;8.63;5.10;;;;;;;;;;5047943;28;20219;-30
2022/11/15 01:09:23;;;;;;;8.03;5.40;;;;;;;;;;5036329;28;20233;-32
2022/11/15 01:11:50;;;;;;;6.53;4.97;;;;;;;;;;5051840;28;20249;-33
2022/11/15 01:14:18;;;;;;;7.63;5.00;;;;;;;;;;5039894;28;20213;-32
2022/11/15 01:16:45;;;;;;;6.03;4.63;;;;;;;;;;5043380;28;20209;-30
2022/11/15 01:19:12;;;;;;;5.10;4.10;;;;;;;;;;5043312;28;20198;-30
2022/11/15 01:21:39;;;;;;;7.97;4.27;;;;;;;;;;5051454;28;20232;-30
2022/11/15 01:24:09;;;;;;;6.10;4.30;;;;;;;;;;5040272;28;20210;-31
2022/11/15 01:26:36;;;;;;;7.37;4.60;;;;;;;;;;5051005;28;20288;-33
2022/11/15 01:29:03;;;;;;;7.03;4.63;;;;;;;;;;5047775;28;20236;-28
2022/11/15 01:31:30;;;;;;;4.77;4.23;;;;;;;;;;5045162;28;20252;-31
2022/11/15 01:33:57;;;;;;;5.13;4.00;;;;;;;;;;5051155;28;20212;-30
2022/11/15 01:36:24;;;;;;;7.87;4.77;;;;;;;;;;5050832;28;20292;-32
2022/11/15 01:38:55;;;;;;;6.00;4.27;;;;;;;;;;5040097;28;20341;-32
2022/11/15 01:41:24;;;;;;;5.77;4.10;;;;;;;;;;5051308;28;20225;-32
2022/11/15 01:43:54;;;;;;;7.13;4.20;;;;;;;;;;5043387;28;20234;-32
2022/11/15 01:46:24;;;;;;;5.80;4.10;;;;;;;;;;5044579;28;20205;-32
2022/11/15 01:48:53;;;;;;;7.37;4.37;;;;;;;;;;5050278;28;20214;-31
2022/11/15 01:51:22;;;;;;;5.67;4.30;;;;;;;;;;5044128;28;20270;-32
2022/11/15 01:53:51;;;;;;;5.77;4.00;;;;;;;;;;5042793;28;20203;-31
2022/11/15 01:56:18;;;;;;;5.00;3.63;;;;;;;;;;5042742;28;20206;-32
2022/11/15 01:58:47;;;;;;;6.87;4.00;;;;;;;;;;5044231;28;20213;-34
2022/11/15 02:01:14;;;;;;;7.20;4.30;;;;;;;;;;5043259;28;20222;-30
2022/11/15 02:03:43;;;;;;;5.70;4.27;;;;;;;;;;5040232;28;20211;-32
2022/11/15 02:06:11;;;;;;;6.30;4.30;;;;;;;;;;5050609;28;20202;-34
2022/11/15 02:08:38;;;;;;;6.00;4.03;;;;;;;;;;5050862;28;20296;-32
2022/11/15 02:11:06;;;;;;;5.17;3.67;;;;;;;;;;5045478;28;20226;-32
2022/11/15 02:13:33;;;;;;;5.37;4.03;;;;;;;;;;5036024;28;20248;-32
2022/11/15 02:16:07;;;;;;;5.37;3.80;;;;;;;;;;5048524;28;20255;-32
2022/11/15 02:18:37;;;;;;;5.60;3.73;;;;;;;;;;5042269;28;20227;-33
2022/11/15 02:21:13;;;;;;;5.87;3.57;;;;;;;;;;5031993;28;20223;-30
2022/11/15 02:24:04;;;;;;;5.87;3.83;;;;;;;;;;5044541;28;20216;-34
2022/11/15 02:26:48;;;;;;;4.90;3.23;;;;;;;;;;5050431;28;20206;-31
2022/11/15 02:29:19;;;;;;;3.60;3.30;;;;;;;;;;5022470;28;20311;-31
2022/11/15 02:31:50;;;;;;;4.03;3.30;;;;;;;;;;5049539;28;20226;-32
2022/11/15 02:34:21;;;;;;;5.57;3.37;;;;;;;;;;5043712;28;20187;-30
2022/11/15 02:36:51;;;;;;;3.90;3.53;;;;;;;;;;5050879;28;20293;-29
2022/11/15 02:39:21;;;;;;;6.13;3.77;;;;;;;;;;5045004;28;20204;-30
2022/11/15 02:41:50;;;;;;;4.17;3.20;;;;;;;;;;5049769;28;20233;-31
2022/11/15 02:44:18;;;;;;;3.13;2.83;;;;;;;;;;5041691;28;20358;-30
2022/11/15 02:49:34;;;;;;;5.83;3.90;;;;;;;;;;5036338;28;20241;-31
2022/11/15 02:52:01;;;;;;;6.10;3.50;;;;;;;;;;5046373;28;20221;-30
2022/11/15 02:54:31;;;;;;;11.63;3.07;;;;;;;;;;5044339;28;20224;-30
2022/11/15 02:57:01;;;;;;;6.47;3.60;;;;;;;;;;5049927;28;20620;-34
2022/11/15 02:59:45;;;;;;;6.53;3.40;;;;;;;;;;5043928;28;21731;-33
2022/11/15 03:02:19;;;;;;;6.60;3.80;;;;;;;;;;5042185;28;20206;-29
2022/11/15 03:04:53;;;;;;;7.33;3.90;;;;;;;;;;5049975;28;20208;-31
2022/11/15 03:07:25;;;;;;;3.30;3.00;;;;;;;;;;5044850;28;20202;-29
2022/11/15 03:09:53;;;;;;;4.83;2.80;;;;;;;;;;5047025;28;20230;-31
2022/11/15 03:12:25;;;;;;;3.93;3.07;;;;;;;;;;5030612;28;20221;-32
2022/11/15 03:14:55;;;;;;;3.90;3.17;;;;;;;;;;5033581;28;20206;-30
2022/11/15 03:17:25;;;;;;;3.57;2.93;;;;;;;;;;5040041;28;20208;-33
2022/11/15 03:19:54;;;;;;;7.10;3.13;;;;;;;;;;5048748;28;20198;-29
2022/11/15 03:22:23;;;;;;;3.93;3.20;;;;;;;;;;5041259;28;20213;-32
2022/11/15 03:24:53;;;;;;;5.13;3.43;;;;;;;;;;5043424;28;20198;-33
2022/11/15 03:27:23;;;;;;;7.33;3.47;;;;;;;;;;5049433;28;20198;-29
2022/11/15 03:29:53;;;;;;;4.27;3.03;;;;;;;;;;5036036;28;20357;-30
2022/11/15 03:32:22;;;;;;;4.37;3.40;;;;;;;;;;5049453;28;20210;-32
2022/11/15 03:34:51;;;;;;;5.33;3.23;;;;;;;;;;5049734;28;20214;-28
2022/11/15 03:37:22;;;;;;;4.70;3.27;;;;;;;;;;5051050;28;20205;-33
2022/11/15 03:39:49;;;;;;;4.20;2.80;;;;;;;;;;5045570;28;20205;-31
2022/11/15 03:42:22;;;;;;;3.57;2.97;;;;;;;;;;5041962;28;20204;-31
2022/11/15 03:44:53;;;;;;;4.53;2.90;;;;;;;;;;5046207;28;20660;-32
2022/11/15 03:47:22;;;;;;;4.77;3.50;;;;;;;;;;5040664;28;20237;-32
2022/11/15 03:49:53;;;;;;;2.93;2.60;;;;;;;;;;5047850;28;20222;-32
2022/11/15 03:52:22;;;;;;;3.67;2.80;;;;;;;;;;5043317;28;20208;-31
2022/11/15 03:54:50;;;;;;;3.17;2.87;;;;;;;;;;5048397;28;20296;-31
2022/11/15 03:57:17;;;;;;;3.60;2.90;;;;;;;;;;5048861;28;20202;-32
2022/11/15 03:59:45;;;;;;;3.17;2.73;;;;;;;;;;5034378;28;20224;-32
2022/11/15 04:02:12;;;;;;;12.17;3.40;;;;;;;;;;5048597;28;20296;-30
2022/11/15 04:04:39;;;;;;;6.40;3.07;;;;;;;;;;5049859;28;20210;-32
2022/11/15 04:07:06;;;;;;;4.23;3.27;;;;;;;;;;5045839;28;20202;-31
2022/11/15 04:10:01;;;;;;;3.20;2.90;;;;;;;;;;5041851;28;20226;-30
2022/11/15 04:12:30;;;;;;;4.83;2.90;;;;;;;;;;5040307;28;20275;-33
2022/11/15 04:15:07;;;;;;;3.90;3.00;;;;;;;;;;5038963;28;20637;-30
2022/11/15 04:17:35;;;;;;;3.30;2.90;;;;;;;;;;5042682;28;20212;-33
2022/11/15 04:25:35;;;;;;;2.70;2.50;;;;;;;;;;5047633;28;20205;-31
2022/11/15 04:28:02;;;;;;;3.33;2.80;;;;;;;;;;5044868;28;20218;-33
2022/11/15 04:30:29;;;;;;;3.20;2.70;;;;;;;;;;5032868;28;20231;-31
2022/11/15 04:32:56;;;;;;;2.87;2.63;;;;;;;;;;5046580;28;20209;-32
2022/11/15 04:35:23;;;;;;;2.97;2.67;;;;;;;;;;5052935;28;20212;-30
2022/11/15 04:37:50;;;;;;;3.03;2.60;;;;;;;;;;5050524;28;20544;-33
2022/11/15 04:40:17;;;;;;;5.73;3.13;;;;;;;;;;5048097;28;20210;-29
2022/11/15 04:42:46;;;;;;;2.47;2.23;;;;;;;;;;5051763;28;20198;-29
2022/11/15 04:45:13;;;;;;;2.97;2.50;;;;;;;;;;5044381;28;20220;-31
2022/11/15 04:47:40;;;;;;;5.87;5.33;;;;;;;;;;5052276;28;20202;-31
2022/11/15 04:50:08;;;;;;;4.20;2.97;;;;;;;;;;5044501;28;20222;-32
2022/11/15 04:52:35;;;;;;;3.50;3.13;;;;;;;;;;5051240;28;20285;-30
2022/11/15 04:55:02;;;;;;;3.97;3.07;;;;;;;;;;5042749;28;20213;-31
2022/11/15 04:57:29;;;;;;;5.20;2.90;;;;;;;;;;5046565;28;20249;-32
2022/11/15 04:59:58;;;;;;;4.07;3.03;;;;;;;;;;5033003;28;20221;-30
2022/11/15 05:04:18;;;;;;;3.67;2.93;;;;;;;;;;5052080;28;20210;-30
2022/11/15 05:05:11;;;;;;;3.20;2.80;;;;;;;;;;5052400;28;20210;-30
2022/11/15 05:07:38;;;;;;;5.60;3.10;;;;;;;;;;5047063;28;20241;-30
2022/11/15 05:10:05;;;;;;;3.27;2.83;;;;;;;;;;5051626;28;20238;-30
2022/11/15 05:12:32;;;;;;;3.00;2.60;;;;;;;;;;5143319;22;20233;-32
2022/11/15 05:15:01;;;;;;;3.23;2.93;;;;;;;;;;5060782;28;20209;-28
2022/11/15 05:17:30;;;;;;;5.13;2.67;;;;;;;;;;5067968;28;20293;-31
2022/11/15 05:19:57;;;;;;;3.93;2.97;;;;;;;;;;5074416;28;20190;-32
2022/11/15 05:22:25;;;;;;;7.27;5.30;;;;;;;;;;5075058;28;20243;-33
2022/11/15 05:24:52;;;;;;;5.83;4.63;;;;;;;;;;5062018;28;20209;-29
2022/11/15 05:27:36;;;;;;;6.50;5.90;;;;;;;;;;5073317;28;20201;-34
2022/11/15 05:30:05;;;;;;;5.70;5.20;;;;;;;;;;5060846;28;20224;-31
2022/11/15 05:32:32;;;;;;;5.90;4.70;;;;;;;;;;5069293;28;20240;-33
2022/11/15 05:35:00;;;;;;;4.23;3.80;;;;;;;;;;5069992;28;20212;-32
2022/11/15 05:37:28;;;;;;;3.50;3.27;;;;;;;;;;5072184;28;20213;-32
2022/11/15 05:40:03;;;;;;;5.00;3.97;;;;;;;;;;5072205;28;20288;-31
2022/11/15 05:42:31;;;;;;;3.60;3.30;;;;;;;;;;5063124;28;20193;-30
2022/11/15 05:44:59;;;;;;;4.60;3.03;;;;;;;;;;5065555;28;20273;-34
2022/11/15 05:47:30;;;;;;;5.30;3.77;;;;;;;;;;5073351;28;20209;-32
2022/11/15 05:49:58;;;;;;;3.73;3.43;;;;;;;;;;5072359;28;20221;-31
2022/11/15 05:52:27;;;;;;;4.70;3.60;;;;;;;;;;5073818;28;20201;-31
2022/11/15 05:54:54;;;;;;;5.63;3.50;;;;;;;;;;5073747;28;20213;-31
2022/11/15 05:57:21;;;;;;;3.77;3.13;;;;;;;;;;5067581;28;20212;-30
2022/11/15 05:59:52;;;;;;;3.87;2.73;;;;;;;;;;5055577;28;20208;-32
2022/11/15 06:02:19;;;;;;;3.50;3.07;;;;;;;;;;5072664;28;20257;-33
2022/11/15 06:04:47;;;;;;;3.57;3.20;;;;;;;;;;5073631;28;20205;-34
2022/11/15 06:07:14;;;;;;;3.40;3.10;;;;;;;;;;5057255;28;20205;-32
2022/11/15 06:09:42;;;;;;;5.77;3.63;;;;;;;;;;5073207;28;20229;-34
2022/11/15 06:12:09;;;;;;;3.70;3.40;;;;;;;;;;5073454;28;20221;-32
2022/11/15 06:14:36;;;;;;;3.70;3.40;;;;;;;;;;5060840;28;20216;-32
2022/11/15 06:17:03;;;;;;;4.70;2.93;;;;;;;;;;5071258;28;20304;-34
2022/11/15 06:19:32;;;;;;;3.10;2.73;;;;;;;;;;5073537;28;20206;-30
2022/11/15 06:22:01;;;;;;;3.57;2.80;;;;;;;;;;5074155;28;20350;-32
2022/11/15 06:24:28;;;;;;;4.77;2.67;;;;;;;;;;5063250;28;20197;-34
2022/11/15 06:26:55;;;;;;;3.33;3.03;;;;;;;;;;5072321;28;20205;-31
2022/11/15 06:29:25;;;;;;;3.30;2.73;;;;;;;;;;5066953;28;20206;-32
2022/11/15 06:31:52;;;;;;;3.00;2.70;;;;;;;;;;5062985;28;20240;-32
2022/11/15 06:34:20;;;;;;;3.80;3.00;;;;;;;;;;5073698;28;20209;-30
2022/11/15 06:36:47;;;;;;;3.93;2.63;;;;;;;;;;5056486;28;20210;-32
2022/11/15 06:39:15;;;;;;;4.67;3.10;;;;;;;;;;5062575;28;20205;-33
2022/11/15 06:41:42;;;;;;;3.97;3.00;;;;;;;;;;5070596;28;20221;-34
2022/11/15 06:44:09;;;;;;;6.13;3.50;;;;;;;;;;5063141;28;20240;-32
2022/11/15 06:46:37;;;;;;;3.77;3.33;;;;;;;;;;5067306;28;20266;-33
2022/11/15 06:49:04;;;;;;;4.23;3.37;;;;;;;;;;5072956;28;20207;-33
2022/11/15 06:51:31;;;;;;;4.07;3.10;;;;;;;;;;5073211;28;20717;-36
2022/11/15 06:53:58;;;;;;;5.17;3.67;;;;;;;;;;5064618;28;20201;-33
2022/11/15 06:56:27;;;;;;;6.13;4.00;;;;;;;;;;5064357;28;20207;-33
2022/11/15 06:58:54;;;;;;;6.77;3.13;;;;;;;;;;5068400;28;20205;-32
2022/11/15 07:01:21;;;;;;;5.33;4.03;;;;;;;;;;5059112;28;20237;-32
2022/11/15 07:03:48;;;;;;;3.83;3.07;;;;;;;;;;5071752;28;20288;-33
2022/11/15 07:06:15;;;;;;;8.10;3.60;;;;;;;;;;5073097;28;20205;-36
2022/11/15 07:08:42;;;;;;;4.27;3.30;;;;;;;;;;5065952;28;20209;-32
2022/11/15 07:11:10;;;;;;;5.70;3.20;;;;;;;;;;5071483;28;20267;-32
2022/11/15 07:13:38;;;;;;;4.50;3.30;;;;;;;;;;5068029;28;20218;-31
2022/11/15 07:16:06;;;;;;;3.80;2.90;;;;;;;;;;5065100;28;20259;-29
2022/11/15 07:18:35;;;;;;;5.37;3.87;;;;;;;;;;5072169;28;20205;-29
2022/11/15 07:21:02;;;;;;;3.57;3.20;;;;;;;;;;5055528;28;20224;-33
2022/11/15 07:23:29;;;;;;;3.17;2.80;;;;;;;;;;5056601;28;20208;-32
2022/11/15 07:25:58;;;;;;;5.23;3.10;;;;;;;;;;5069696;28;20205;-31
2022/11/15 07:28:26;;;;;;;3.90;3.20;;;;;;;;;;5068834;28;20251;-29
2022/11/15 07:30:54;;;;;;;3.47;2.80;;;;;;;;;;5061168;28;20229;-31
2022/11/15 07:33:21;;;;;;;5.67;2.87;;;;;;;;;;5064937;28;20201;-32
2022/11/15 07:35:52;;;;;;;3.10;2.80;;;;;;;;;;5069974;28;20215;-29
2022/11/15 07:38:20;;;;;;;4.33;2.77;;;;;;;;;;5065446;28;20202;-31
2022/11/15 07:40:47;;;;;;;2.87;2.67;;;;;;;;;;5072232;28;20225;-31
2022/11/15 07:43:15;;;;;;;2.83;2.60;;;;;;;;;;5070147;28;20205;-30
2022/11/15 07:45:42;;;;;;;3.97;3.00;;;;;;;;;;5070224;28;20215;-30
2022/11/15 07:48:11;;;;;;;4.63;2.97;;;;;;;;;;5070346;28;20209;-30
2022/11/15 07:50:38;;;;;;;4.13;2.83;;;;;;;;;;5057757;28;20229;-30
2022/11/15 07:53:05;;;;;;;3.70;3.13;;;;;;;;;;5053936;28;20293;-31
2022/11/15 07:55:32;;;;;;;4.63;4.00;;;;;;;;;;5062642;28;20213;-31
2022/11/15 07:58:03;;;;;;;5.40;3.13;;;;;;;;;;5070704;28;20208;-27
2022/11/15 08:00:30;;;;;;;6.33;3.83;;;;;;;;;;5061267;28;20223;-31
2022/11/15 08:03:03;;;;;;;6.63;3.53;;;;;;;;;;5068842;28;20304;-32
2022/11/15 08:05:31;;;;;;;4.23;3.03;;;;;;;;;;5072242;28;20196;-32
2022/11/15 08:07:58;;;;;;;3.47;2.83;;;;;;;;;;5067469;28;20214;-32
2022/11/15 08:10:25;;;;;;;3.63;2.93;;;;;;;;;;5066347;28;20249;-31
2022/11/15 08:12:58;;;;;;;3.13;2.77;;;;;;;;;;5075302;28;20213;-29
2022/11/15 08:15:25;;;;;;;4.60;3.13;;;;;;;;;;5056084;28;20202;-31
2022/11/15 08:17:55;;;;;;;4.73;3.43;;;;;;;;;;5070623;28;20213;-32
2022/11/15 08:20:22;;;;;;;5.43;3.20;;;;;;;;;;5075103;28;20225;-29
2022/11/15 08:22:51;;;;;;;6.77;3.23;;;;;;;;;;5074416;28;20292;-30
2022/11/15 08:25:18;;;;;;;4.40;3.30;;;;;;;;;;5074545;28;20206;-31
2022/11/15 08:27:45;;;;;;;3.83;3.30;;;;;;;;;;5076874;28;20287;-31
2022/11/15 08:30:13;;;;;;;3.73;3.27;;;;;;;;;;5066878;28;20224;-32
2022/11/15 08:32:40;;;;;;;6.23;3.97;;;;;;;;;;5076778;28;20251;-29
2022/11/15 08:35:08;;;;;;;5.37;4.07;;;;;;;;;;5064425;28;20206;-32
2022/11/15 08:37:35;;;;;;;5.07;3.97;;;;;;;;;;5063578;28;20220;-34
2022/11/15 08:40:04;;;;;;;7.80;3.80;;;;;;;;;;5072107;28;20269;-28
2022/11/15 08:42:31;;;;;;;4.37;3.80;;;;;;;;;;5075942;28;20207;-30
2022/11/15 08:44:58;;;;;;;6.70;3.80;;;;;;;;;;5063187;28;20205;-28
2022/11/15 08:47:26;;;;;;;5.27;4.53;;;;;;;;;;5067265;28;20198;-29
2022/11/15 08:49:53;;;;;;;4.63;3.97;;;;;;;;;;5067101;28;20202;-28
2022/11/15 08:52:20;;;;;;;6.77;4.10;;;;;;;;;;5054838;28;20238;-31
2022/11/15 08:54:47;;;;;;;6.10;4.47;;;;;;;;;;5063202;28;20202;-28
2022/11/15 08:57:16;;;;;;;5.37;4.60;;;;;;;;;;5074128;28;20254;-33
2022/11/15 08:59:43;;;;;;;3.77;3.47;;;;;;;;;;5066040;28;20292;-32
2022/11/15 09:02:13;;;;;;;5.17;3.80;;;;;;;;;;5072957;28;20205;-31
2022/11/15 09:04:41;;;;;;;4.70;4.13;;;;;;;;;;5075892;28;20205;-31
2022/11/15 09:07:08;;;;;;;5.13;4.30;;;;;;;;;;5075560;28;20205;-34
2022/11/15 09:09:35;;;;;;;5.73;4.30;;;;;;;;;;5067052;28;20267;-33
2022/11/15 09:12:02;;;;;;;6.83;5.07;;;;;;;;;;5072445;28;20260;-28
2022/11/15 09:14:31;;;;;;;8.43;6.93;;;;;;;;;;5064947;28;20292;-32
2022/11/15 09:16:59;;;;;;;9.23;6.00;;;;;;;;;;5073373;28;20233;-30
2022/11/15 09:19:26;;;;;;;7.70;6.00;;;;;;;;;;5075147;28;20201;-31
2022/11/15 09:21:53;;;;;;;8.50;5.43;;;;;;;;;;5073684;28;20232;-32
2022/11/15 09:24:20;;;;;;;8.00;6.13;;;;;;;;;;5067204;28;20664;-31
2022/11/15 09:26:47;;;;;;;9.53;6.60;;;;;;;;;;5071082;28;20300;-33
2022/11/15 09:29:15;;;;;;;9.67;6.63;;;;;;;;;;5066302;28;20208;-34
2022/11/15 09:31:43;;;;;;;8.80;6.50;;;;;;;;;;5068177;28;20229;-30
2022/11/15 09:34:11;;;;;;;7.33;5.73;;;;;;;;;;5074138;28;20294;-29
2022/11/15 09:36:38;;;;;;;7.90;5.70;;;;;;;;;;5070661;28;20209;-30
2022/11/15 09:39:05;;;;;;;10.47;6.27;;;;;;;;;;5068683;28;20213;-32
2022/11/15 09:41:45;;;;;;;10.43;5.63;;;;;;;;;;5072570;28;20348;-28
2022/11/15 09:44:22;;;;;;;7.13;5.47;;;;;;;;;;5061898;28;20213;-30
2022/11/15 09:46:55;;;;;;;8.67;5.50;;;;;;;;;;5071117;28;20215;-32
2022/11/15 09:49:22;;;;;;;7.47;6.37;;;;;;;;;;5071576;28;20205;-30
2022/11/15 09:51:51;;;;;;;7.67;6.60;;;;;;;;;;5065541;28;20353;-30
2022/11/15 09:54:22;;;;;;;10.73;7.00;;;;;;;;;;5055780;28;20210;-31
2022/11/15 09:56:50;;;;;;;9.67;7.07;;;;;;;;;;5071832;28;20197;-30
2022/11/15 09:59:31;;;;;;;14.93;8.07;;;;;;;;;;5067613;28;20292;-31
2022/11/15 10:02:05;;;;;;;9.10;7.03;;;;;;;;;;5062125;28;20229;-33
2022/11/15 10:04:32;;;;;;;12.30;7.87;;;;;;;;;;5073925;28;20202;-28
2022/11/15 10:07:03;;;;;;;13.03;8.47;;;;;;;;;;5074361;28;20288;-30
2022/11/15 10:09:33;;;;;;;11.80;7.77;;;;;;;;;;5069454;28;20204;-31
2022/11/15 10:12:00;;;;;;;12.27;7.53;;;;;;;;;;5072217;28;20237;-30
2022/11/15 10:14:30;;;;;;;12.97;8.00;;;;;;;;;;5062771;28;20214;-33
2022/11/15 10:17:08;;;;;;;9.37;7.53;;;;;;;;;;5068994;28;20304;-30
2022/11/15 10:19:38;;;;;;;12.00;7.30;;;;;;;;;;5065779;28;20197;-30
2022/11/15 10:22:13;;;;;;;10.10;7.73;;;;;;;;;;5071338;28;20340;-30
2022/11/15 10:24:43;;;;;;;10.30;7.60;;;;;;;;;;5055074;28;20308;-33
2022/11/15 10:27:12;;;;;;;11.50;7.20;;;;;;;;;;5071529;28;20205;-30
2022/11/15 10:29:44;;;;;;;13.83;9.07;;;;;;;;;;5059712;28;20235;-30
2022/11/15 10:32:12;;;;;;;8.53;6.80;;;;;;;;;;5063285;28;20304;-31
2022/11/15 10:34:40;;;;;;;17.30;7.77;;;;;;;;;;5065500;28;20209;-29
2022/11/15 10:37:07;;;;;;;11.37;7.40;;;;;;;;;;5058800;28;20214;-30
2022/11/15 10:39:41;;;;;;;9.13;7.17;;;;;;;;;;5069749;28;20213;-33
2022/11/15 10:42:18;;;;;;;11.40;8.40;;;;;;;;;;5072516;28;20243;-29
2022/11/15 10:44:46;;;;;;;10.17;8.07;;;;;;;;;;5056140;28;20210;-32
2022/11/15 10:47:30;;;;;;;8.50;7.17;;;;;;;;;;5070763;28;20205;-29
2022/11/15 10:49:58;;;;;;;9.43;6.77;;;;;;;;;;5072655;28;20284;-32
2022/11/15 10:52:26;;;;;;;10.03;7.53;;;;;;;;;;5053806;28;20232;-32
2022/11/15 10:54:54;;;;;;;9.20;7.07;;;;;;;;;;5058977;28;20201;-31
2022/11/15 10:57:23;;;;;;;12.10;8.17;;;;;;;;;;5072565;28;20300;-31
2022/11/15 10:59:51;;;;;;;11.90;8.50;;;;;;;;;;5066490;28;20292;-32
2022/11/15 11:02:30;;;;;;;9.27;7.03;;;;;;;;;;5065379;28;20208;-31
2022/11/15 11:04:58;;;;;;;8.60;7.13;;;;;;;;;;5072744;28;20197;-30
2022/11/15 11:07:26;;;;;;;10.40;6.97;;;;;;;;;;5061650;28;20198;-32
2022/11/15 11:09:58;;;;;;;9.40;7.30;;;;;;;;;;5069805;28;20213;-29
2022/11/15 11:12:29;;;;;;;12.10;7.80;;;;;;;;;;5055085;28;20229;-30
2022/11/15 11:14:56;;;;;;;9.63;7.20;;;;;;;;;;5316309;22;20233;-31
2022/11/15 11:17:30;;;;;;;11.10;6.77;;;;;;;;;;5068852;28;20215;-33
2022/11/15 11:20:03;;;;;;;8.27;6.47;;;;;;;;;;5073922;28;20209;-34
2022/11/15 11:22:34;;;;;;;11.43;7.00;;;;;;;;;;5067342;28;20254;-31
2022/11/15 11:25:06;;;;;;;7.63;6.60;;;;;;;;;;5065453;28;20296;-31
2022/11/15 11:27:38;;;;;;;7.87;6.17;;;;;;;;;;5069620;28;20213;-33
2022/11/15 11:30:10;;;;;;;9.17;6.53;;;;;;;;;;5054500;28;20237;-32
2022/11/15 11:32:43;;;;;;;9.37;6.37;;;;;;;;;;5063002;28;20228;-36
2022/11/15 11:35:14;;;;;;;11.03;6.70;;;;;;;;;;5069664;28;20268;-32
2022/11/15 11:37:47;;;;;;;15.60;7.27;;;;;;;;;;5067251;28;20292;-33
2022/11/15 11:40:22;;;;;;;11.30;6.80;;;;;;;;;;5068460;28;20233;-33
2022/11/15 11:42:58;;;;;;;13.33;7.63;;;;;;;;;;5070849;28;20232;-31
2022/11/15 11:45:29;;;;;;;10.93;7.80;;;;;;;;;;5060763;28;20279;-32
2022/11/15 11:48:00;;;;;;;10.87;7.70;;;;;;;;;;5073395;28;20219;-33
2022/11/15 11:50:28;;;;;;;10.03;7.33;;;;;;;;;;5058966;28;20594;-35
2022/11/15 11:52:58;;;;;;;13.77;7.97;;;;;;;;;;5062262;28;20226;-36
2022/11/15 11:55:27;;;;;;;12.83;7.77;;;;;;;;;;5068825;28;20206;-33
2022/11/15 11:58:01;;;;;;;13.60;7.93;;;;;;;;;;5069282;28;20205;-34
2022/11/15 12:00:28;;;;;;;9.90;6.67;;;;;;;;;;5068260;28;20227;-31
2022/11/15 12:03:04;;;;;;;14.07;7.80;;;;;;;;;;5069037;28;20207;-35
2022/11/15 12:05:37;;;;;;;11.07;7.17;;;;;;;;;;5073418;28;20215;-30
2022/11/15 12:08:10;;;;;;;9.13;7.27;;;;;;;;;;5065008;28;20255;-32
2022/11/15 12:10:39;;;;;;;12.37;7.00;;;;;;;;;;5069343;28;20260;-32
2022/11/15 12:13:07;;;;;;;9.93;7.07;;;;;;;;;;5069422;28;20217;-33
2022/11/15 12:15:42;;;;;;;9.57;7.40;;;;;;;;;;5064992;28;20296;-31
2022/11/15 12:18:10;;;;;;;10.13;6.60;;;;;;;;;;5072847;28;20207;-35
2022/11/15 12:20:41;;;;;;;10.20;6.47;;;;;;;;;;5073039;28;20258;-31
2022/11/15 12:23:13;;;;;;;11.23;6.23;;;;;;;;;;5062357;28;20237;-31
2022/11/15 12:25:46;;;;;;;13.67;6.10;;;;;;;;;;5072362;28;20215;-33
2022/11/15 12:28:15;;;;;;;5.93;5.07;;;;;;;;;;5068843;28;20207;-38
2022/11/15 12:30:44;;;;;;;8.33;5.47;;;;;;;;;;5060855;28;20225;-31
2022/11/15 12:33:26;;;;;;;6.53;4.53;;;;;;;;;;5070748;28;20248;-33
2022/11/15 12:36:00;;;;;;;6.20;5.00;;;;;;;;;;5070471;28;20211;-34
2022/11/15 12:38:42;;;;;;;9.33;6.30;;;;;;;;;;5072166;28;20205;-31
2022/11/15 12:41:16;;;;;;;8.90;5.73;;;;;;;;;;5072443;28;20232;-33
2022/11/15 12:43:44;;;;;;;9.13;6.00;;;;;;;;;;5068804;28;20203;-33
2022/11/15 12:46:20;;;;;;;9.33;6.60;;;;;;;;;;5071726;28;20209;-31
2022/11/15 12:48:49;;;;;;;9.43;5.33;;;;;;;;;;5071941;28;20201;-35
2022/11/15 12:51:18;;;;;;;8.53;6.40;;;;;;;;;;5073977;28;20232;-34
2022/11/15 12:53:45;;;;;;;11.13;6.77;;;;;;;;;;5067630;28;20229;-36
2022/11/15 12:56:23;;;;;;;12.40;6.43;;;;;;;;;;5069667;28;20223;-34
2022/11/15 12:58:52;;;;;;;9.77;6.37;;;;;;;;;;5062567;28;20210;-31
2022/11/15 13:01:37;;;;;;;10.07;6.03;;;;;;;;;;5070190;28;20225;-35
2022/11/15 13:04:14;;;;;;;8.47;6.20;;;;;;;;;;5072292;28;20233;-31
2022/11/15 13:06:44;;;;;;;7.23;5.60;;;;;;;;;;5072403;28;20204;-34
2022/11/15 13:09:41;;;;;;;6.60;5.40;;;;;;;;;;5052771;28;20305;-33
2022/11/15 13:12:13;;;;;;;8.83;4.80;;;;;;;;;;4997012;28;20235;-33
2022/11/15 13:14:44;;;;;;;6.93;5.00;;;;;;;;;;5044119;28;20278;-31
2022/11/15 13:17:21;;;;;;;7.33;5.30;;;;;;;;;;5063969;28;20209;-33
2022/11/15 13:19:49;;;;;;;8.60;5.00;;;;;;;;;;5071843;28;20205;-35
2022/11/15 13:25:19;;;;;;;6.50;4.83;;;;;;;;;;5013479;28;20218;-31
2022/11/15 13:27:48;;;;;;;7.53;4.97;;;;;;;;;;5009706;28;20206;-33
2022/11/15 13:30:16;;;;;;;7.47;4.60;;;;;;;;;;5025436;28;20435;-31
2022/11/15 13:32:43;;;;;;;5.47;4.00;;;;;;;;;;5071412;28;20217;-33
2022/11/15 13:35:10;;;;;;;6.57;4.50;;;;;;;;;;5072138;28;20211;-32
2022/11/15 13:37:39;;;;;;;8.87;4.67;;;;;;;;;;5066444;28;20205;-34
2022/11/15 13:40:20;;;;;;;4.73;4.20;;;;;;;;;;5057900;28;20272;-33
2022/11/15 13:42:47;;;;;;;7.00;4.43;;;;;;;;;;5072694;28;20207;-31
2022/11/15 13:45:16;;;;;;;5.13;4.60;;;;;;;;;;5051868;28;20297;-32
2022/11/15 13:47:43;;;;;;;5.87;4.50;;;;;;;;;;5071547;28;20292;-32
2022/11/15 13:50:12;;;;;;;5.87;3.73;;;;;;;;;;5071588;28;20307;-32
2022/11/15 13:52:42;;;;;;;4.47;4.07;;;;;;;;;;5065047;28;20229;-30
2022/11/15 13:55:13;;;;;;;4.67;4.10;;;;;;;;;;5060659;28;20302;-35
2022/11/15 13:57:42;;;;;;;7.50;4.40;;;;;;;;;;5071233;28;20270;-33
2022/11/15 14:00:26;;;;;;;4.70;3.90;;;;;;;;;;5063239;28;20236;-35
2022/11/15 14:02:54;;;;;;;6.33;3.47;;;;;;;;;;5067227;28;20292;-33
2022/11/15 14:05:22;;;;;;;5.60;3.93;;;;;;;;;;5071709;28;20205;-32
2022/11/15 14:07:56;;;;;;;6.10;4.43;;;;;;;;;;5064458;28;20210;-32
2022/11/15 14:10:27;;;;;;;8.80;4.73;;;;;;;;;;5062553;28;20225;-32
2022/11/15 14:12:54;;;;;;;5.33;4.10;;;;;;;;;;5070783;28;20221;-32
2022/11/15 14:15:27;;;;;;;5.47;4.67;;;;;;;;;;5065635;28;20221;-29
2022/11/15 14:17:54;;;;;;;6.00;4.70;;;;;;;;;;5071011;28;20342;-33
2022/11/15 14:20:27;;;;;;;6.40;4.43;;;;;;;;;;5071163;28;20232;-31
2022/11/15 14:22:56;;;;;;;6.10;4.60;;;;;;;;;;5065065;28;20202;-33
2022/11/15 14:25:24;;;;;;;7.43;4.27;;;;;;;;;;5070326;28;20202;-31
2022/11/15 14:28:15;;;;;;;4.73;4.30;;;;;;;;;;5074744;28;20201;-32
2022/11/15 14:30:42;;;;;;;6.23;4.47;;;;;;;;;;5064004;28;20331;-31
2022/11/15 14:33:19;;;;;;;6.37;5.17;;;;;;;;;;5070828;28;20232;-32
2022/11/15 14:35:47;;;;;;;7.90;5.03;;;;;;;;;;5071547;28;20213;-32
2022/11/15 14:38:15;;;;;;;7.70;5.50;;;;;;;;;;5064931;28;20212;-31
2022/11/15 14:40:44;;;;;;;8.60;5.77;;;;;;;;;;5065527;28;20259;-31
2022/11/15 14:43:12;;;;;;;6.60;4.93;;;;;;;;;;5070051;28;20239;-29
2022/11/15 14:45:40;;;;;;;7.43;5.53;;;;;;;;;;5063121;28;20214;-32
2022/11/15 14:48:15;;;;;;;8.47;5.10;;;;;;;;;;5069065;28;20225;-30
2022/11/15 14:50:42;;;;;;;8.77;5.73;;;;;;;;;;5071806;28;20235;-31
2022/11/15 14:53:13;;;;;;;9.83;5.70;;;;;;;;;;5060577;28;20229;-29
2022/11/15 14:55:42;;;;;;;7.50;5.23;;;;;;;;;;5071382;28;20197;-30
2022/11/15 14:58:09;;;;;;;8.17;5.40;;;;;;;;;;5071186;28;20938;-30
2022/11/15 15:00:37;;;;;;;9.80;5.70;;;;;;;;;;5066096;28;20229;-31
2022/11/15 15:03:05;;;;;;;10.03;5.83;;;;;;;;;;5071047;28;20259;-32
2022/11/15 15:05:33;;;;;;;10.80;5.50;;;;;;;;;;5070650;28;20295;-31